Time;durP1;ratioP1;P1;durP2;ratioP2;P2;SDS_P1;SDS_P2;PMS_P1;PMS_P2;Temp;Humidity;BMP_temperature;BMP_pressure;BME280_temperature;BME280_humidity;BME280_pressure;Samples;Min_cycle;Max_cycle;Signal;HPM_P1;HPM_P2
2022/04/24 00:00:09;;;;;;;4.85;4.35;;;12.30;99.90;;;;;;5028231;28;36249;-77
2022/04/24 00:02:35;;;;;;;4.88;4.32;;;12.30;99.90;;;;;;5025309;28;37621;-77
2022/04/24 00:05:03;;;;;;;8.95;5.47;;;12.20;99.90;;;;;;5044807;28;38967;-77
2022/04/24 00:07:29;;;;;;;5.32;4.30;;;12.20;99.90;;;;;;5044322;28;47375;-77
2022/04/24 00:09:56;;;;;;;5.00;4.50;;;12.20;99.90;;;;;;5043850;28;35949;-77
2022/04/24 00:12:22;;;;;;;5.15;4.65;;;12.20;99.90;;;;;;5042767;28;38573;-78
2022/04/24 00:14:48;;;;;;;4.90;4.40;;;12.10;99.90;;;;;;5045442;28;39817;-77
2022/04/24 00:17:16;;;;;;;5.20;4.55;;;12.10;99.90;;;;;;5045067;28;38568;-77
2022/04/24 00:19:43;;;;;;;5.00;4.53;;;12.10;99.90;;;;;;5043279;28;38715;-77
2022/04/24 00:22:09;;;;;;;6.10;4.70;;;12.10;99.90;;;;;;5043435;28;38697;-77
2022/04/24 00:24:36;;;;;;;5.55;4.45;;;12.00;99.90;;;;;;5047007;28;38674;-77
2022/04/24 00:27:02;;;;;;;5.10;4.60;;;12.00;99.90;;;;;;5046411;28;38649;-77
2022/04/24 00:29:28;;;;;;;5.10;4.60;;;11.90;99.90;;;;;;5030512;28;37857;-77
2022/04/24 00:31:54;;;;;;;5.10;4.60;;;12.00;99.90;;;;;;5041364;28;38898;-77
2022/04/24 00:34:21;;;;;;;5.30;4.80;;;11.90;99.90;;;;;;5045814;28;38923;-76
2022/04/24 00:36:47;;;;;;;6.75;4.68;;;11.90;99.90;;;;;;5042522;28;40437;-77
2022/04/24 00:39:14;;;;;;;5.95;4.85;;;12.00;99.90;;;;;;5042955;28;38001;-77
2022/04/24 00:41:50;;;;;;;7.05;4.88;;;12.00;99.90;;;;;;5043270;28;38706;-77
2022/04/24 00:44:18;;;;;;;7.90;5.13;;;12.00;99.90;;;;;;5022919;28;39124;-77
2022/04/24 00:47:01;;;;;;;9.45;5.00;;;12.00;99.90;;;;;;5024002;28;39197;-76
2022/04/24 00:49:29;;;;;;;8.60;5.20;;;12.00;99.90;;;;;;5047076;28;47503;-77
2022/04/24 00:51:56;;;;;;;5.95;5.35;;;11.90;99.90;;;;;;5037737;28;39984;-77
2022/04/24 00:54:22;;;;;;;6.10;5.28;;;11.80;99.90;;;;;;5040492;28;40026;-78
2022/04/24 00:56:48;;;;;;;5.85;4.10;;;11.90;99.90;;;;;;5051511;28;39033;-77
2022/04/24 00:59:15;;;;;;;5.25;4.50;;;11.90;99.90;;;;;;5038955;28;36232;-78
2022/04/24 01:01:42;;;;;;;6.25;4.78;;;11.90;99.90;;;;;;5025609;28;38628;-77
2022/04/24 01:04:10;;;;;;;5.53;5.03;;;11.90;99.90;;;;;;5036113;28;38281;-77
2022/04/24 01:06:39;;;;;;;8.20;4.80;;;11.90;99.90;;;;;;5052052;28;37330;-77
2022/04/24 01:09:09;;;;;;;7.90;4.90;;;11.90;99.90;;;;;;5044788;28;37322;-77
2022/04/24 01:11:36;;;;;;;5.63;4.97;;;11.90;99.90;;;;;;5068161;28;37804;-78
2022/04/24 01:14:02;;;;;;;8.55;5.07;;;11.90;99.90;;;;;;5037811;28;39661;-78
2022/04/24 01:16:28;;;;;;;7.40;5.15;;;11.90;99.90;;;;;;5055767;28;49081;-77
2022/04/24 01:18:55;;;;;;;7.18;5.00;;;11.90;99.90;;;;;;5035617;28;37181;-79
2022/04/24 01:21:22;;;;;;;6.18;4.75;;;11.80;99.90;;;;;;5055529;28;39080;-78
2022/04/24 01:23:48;;;;;;;6.47;5.10;;;11.70;99.90;;;;;;5024563;28;37512;-78
2022/04/24 01:26:14;;;;;;;5.00;4.50;;;11.80;99.90;;;;;;5048131;28;37997;-77
2022/04/24 01:28:40;;;;;;;5.22;4.30;;;11.80;99.90;;;;;;5049137;28;37629;-76
2022/04/24 01:31:06;;;;;;;5.72;4.97;;;11.70;99.90;;;;;;5052458;28;40311;-78
2022/04/24 01:33:32;;;;;;;7.05;4.75;;;11.70;99.90;;;;;;5050631;28;40341;-77
2022/04/24 01:35:58;;;;;;;5.72;5.22;;;11.70;99.90;;;;;;5054203;28;38091;-78
2022/04/24 01:38:24;;;;;;;5.88;5.28;;;11.70;99.90;;;;;;5035157;28;35980;-77
2022/04/24 01:40:50;;;;;;;8.48;5.32;;;11.60;99.90;;;;;;5055329;28;38695;-77
2022/04/24 01:43:16;;;;;;;7.28;5.32;;;11.60;99.90;;;;;;5046466;28;39571;-78
2022/04/24 01:45:43;;;;;;;7.13;4.97;;;11.50;99.90;;;;;;5046874;28;39940;-77
2022/04/24 01:48:09;;;;;;;5.40;4.90;;;11.50;99.90;;;;;;5021611;28;39315;-77
2022/04/24 01:50:36;;;;;;;6.22;4.97;;;11.50;99.90;;;;;;5055090;28;39051;-77
2022/04/24 01:53:02;;;;;;;6.75;4.93;;;11.40;99.90;;;;;;5035395;28;39899;-78
2022/04/24 01:55:29;;;;;;;6.85;5.63;;;11.40;99.90;;;;;;5058810;28;39688;-77
2022/04/24 01:57:55;;;;;;;5.75;5.15;;;11.30;99.90;;;;;;5053421;28;37767;-79
2022/04/24 02:00:21;;;;;;;6.40;5.57;;;11.30;99.90;;;;;;5021599;28;37538;-78
2022/04/24 02:02:47;;;;;;;6.15;5.47;;;11.30;99.90;;;;;;5057974;28;39115;-78
2022/04/24 02:05:14;;;;;;;6.55;5.85;;;11.20;99.90;;;;;;5044323;28;38698;-78
2022/04/24 02:07:41;;;;;;;6.85;5.63;;;11.10;99.90;;;;;;5035595;28;37987;-77
2022/04/24 02:10:07;;;;;;;7.13;5.72;;;11.10;99.90;;;;;;5062059;28;39220;-78
2022/04/24 02:12:34;;;;;;;6.75;6.05;;;11.10;99.90;;;;;;5052686;28;38835;-77
2022/04/24 02:15:00;;;;;;;6.75;6.07;;;11.10;99.90;;;;;;5049330;28;38813;-78
2022/04/24 02:17:26;;;;;;;7.00;6.30;;;11.00;99.90;;;;;;5037800;28;35796;-77
2022/04/24 02:19:52;;;;;;;6.35;5.75;;;10.90;99.90;;;;;;5048698;28;37885;-77
2022/04/24 02:22:20;;;;;;;8.93;7.15;;;10.90;99.90;;;;;;5034656;28;38522;-77
2022/04/24 02:24:46;;;;;;;10.32;7.38;;;10.90;99.90;;;;;;5059522;28;40134;-77
2022/04/24 02:27:12;;;;;;;8.52;6.75;;;10.80;99.90;;;;;;5047763;28;38053;-77
2022/04/24 02:29:38;;;;;;;9.60;6.78;;;10.70;99.90;;;;;;5051202;28;38286;-79
2022/04/24 02:32:05;;;;;;;8.30;7.40;;;10.70;99.90;;;;;;5027713;28;40410;-77
2022/04/24 02:34:31;;;;;;;10.88;8.07;;;10.70;99.90;;;;;;5029280;28;39541;-76
2022/04/24 02:36:57;;;;;;;10.90;7.63;;;10.70;99.90;;;;;;5045915;28;38526;-77
2022/04/24 02:39:23;;;;;;;10.88;8.18;;;10.70;99.90;;;;;;5027248;28;40597;-77
2022/04/24 02:41:49;;;;;;;9.68;8.27;;;10.60;99.90;;;;;;5056372;28;38674;-77
2022/04/24 02:44:15;;;;;;;11.45;8.50;;;10.60;99.90;;;;;;5061240;28;38290;-77
2022/04/24 02:46:41;;;;;;;10.68;8.85;;;10.50;99.90;;;;;;5047721;28;37072;-77
2022/04/24 02:49:08;;;;;;;10.23;8.48;;;10.60;99.90;;;;;;5047858;28;40908;-78
2022/04/24 02:51:34;;;;;;;11.07;8.48;;;10.60;99.90;;;;;;5027907;28;39031;-77
2022/04/24 02:54:00;;;;;;;11.73;9.40;;;10.50;99.90;;;;;;5057392;28;38590;-77
2022/04/24 02:56:26;;;;;;;10.45;8.45;;;10.50;99.90;;;;;;5053063;28;36906;-76
2022/04/24 02:58:52;;;;;;;15.05;9.65;;;10.40;99.90;;;;;;5049712;28;41601;-76
2022/04/24 03:01:18;;;;;;;12.90;10.25;;;10.40;99.90;;;;;;5044020;28;39441;-77
2022/04/24 03:03:45;;;;;;;11.77;10.57;;;10.40;99.90;;;;;;5046837;28;38004;-75
2022/04/24 03:06:11;;;;;;;12.93;10.93;;;10.30;99.90;;;;;;5045101;28;37458;-77
2022/04/24 03:08:38;;;;;;;12.80;10.88;;;10.30;99.90;;;;;;5034195;28;39050;-75
2022/04/24 03:11:04;;;;;;;12.05;10.77;;;10.30;99.90;;;;;;5039410;28;39627;-75
2022/04/24 03:13:30;;;;;;;14.30;11.25;;;10.30;99.90;;;;;;5060126;28;39087;-75
2022/04/24 03:15:57;;;;;;;13.90;11.77;;;10.20;99.90;;;;;;5018125;28;38850;-77
2022/04/24 03:18:23;;;;;;;15.57;12.52;;;10.20;99.90;;;;;;5054462;28;38993;-77
2022/04/24 03:20:49;;;;;;;16.08;12.20;;;10.10;99.90;;;;;;5023374;28;39205;-75
2022/04/24 03:23:15;;;;;;;15.35;12.80;;;10.20;99.90;;;;;;5043052;28;38374;-75
2022/04/24 03:25:41;;;;;;;13.57;12.05;;;10.10;99.90;;;;;;5048151;28;36461;-75
2022/04/24 03:28:09;;;;;;;14.55;12.25;;;10.10;99.90;;;;;;5038497;28;38845;-76
2022/04/24 03:30:38;;;;;;;19.08;13.43;;;10.00;99.90;;;;;;5055892;28;39830;-75
2022/04/24 03:33:04;;;;;;;13.87;12.23;;;10.00;99.90;;;;;;5049972;28;38487;-76
2022/04/24 03:35:30;;;;;;;17.70;12.70;;;10.00;99.90;;;;;;5029738;28;37285;-76
2022/04/24 03:37:56;;;;;;;15.43;12.55;;;10.00;99.90;;;;;;5033042;28;38957;-75
2022/04/24 03:40:23;;;;;;;15.70;13.88;;;9.90;99.90;;;;;;5052183;28;39419;-76
2022/04/24 03:42:49;;;;;;;15.33;12.37;;;9.80;99.90;;;;;;5031140;28;38297;-76
2022/04/24 03:45:15;;;;;;;15.70;13.13;;;9.80;99.90;;;;;;5047633;28;38860;-75
2022/04/24 03:47:41;;;;;;;16.97;13.23;;;9.80;99.90;;;;;;5039565;28;39117;-75
2022/04/24 03:50:07;;;;;;;14.97;12.40;;;9.80;99.90;;;;;;5034877;28;38955;-75
2022/04/24 03:52:33;;;;;;;15.03;12.33;;;9.70;99.90;;;;;;5015260;28;38694;-76
2022/04/24 03:55:00;;;;;;;13.57;11.87;;;9.70;99.90;;;;;;5029512;28;37784;-76
2022/04/24 03:57:26;;;;;;;16.67;12.67;;;9.70;99.90;;;;;;5045004;28;39199;-76
2022/04/24 03:59:52;;;;;;;16.53;12.40;;;9.70;99.90;;;;;;5043641;28;37938;-76
2022/04/24 04:02:18;;;;;;;15.07;11.87;;;9.70;99.90;;;;;;5022403;28;38278;-76
2022/04/24 04:04:44;;;;;;;14.67;12.30;;;9.60;99.90;;;;;;5051447;28;37093;-76
2022/04/24 04:07:10;;;;;;;14.07;11.50;;;9.60;99.90;;;;;;5024513;28;39254;-77
2022/04/24 04:09:36;;;;;;;15.80;11.77;;;9.60;99.90;;;;;;5024841;28;39946;-75
2022/04/24 04:12:03;;;;;;;15.73;13.00;;;9.60;99.90;;;;;;5025063;28;39209;-76
2022/04/24 04:14:29;;;;;;;18.23;12.53;;;9.50;99.90;;;;;;5029280;28;37297;-76
2022/04/24 04:16:55;;;;;;;15.20;12.80;;;9.60;99.90;;;;;;5057445;28;39549;-76
2022/04/24 04:19:21;;;;;;;17.23;12.00;;;9.60;99.90;;;;;;5037969;28;39067;-76
2022/04/24 04:21:47;;;;;;;13.77;11.60;;;9.50;99.90;;;;;;5022885;28;38831;-76
2022/04/24 04:24:14;;;;;;;13.57;11.45;;;9.50;99.90;;;;;;5025101;28;36841;-76
2022/04/24 04:26:40;;;;;;;15.30;12.47;;;9.60;99.90;;;;;;5027142;28;39722;-76
2022/04/24 04:29:06;;;;;;;12.63;11.17;;;9.50;99.90;;;;;;5033067;28;40273;-76
2022/04/24 04:31:32;;;;;;;19.27;12.77;;;9.50;99.90;;;;;;5032035;28;38328;-76
2022/04/24 04:33:58;;;;;;;13.77;11.67;;;9.50;99.90;;;;;;5030616;28;37306;-76
2022/04/24 04:36:24;;;;;;;13.13;10.93;;;9.40;99.90;;;;;;5029316;28;37545;-76
2022/04/24 04:38:51;;;;;;;14.60;11.23;;;9.40;99.90;;;;;;5031701;28;38717;-76
2022/04/24 04:41:17;;;;;;;14.90;12.07;;;9.40;99.90;;;;;;5060112;28;37389;-77
2022/04/24 04:43:43;;;;;;;15.57;12.17;;;9.40;99.90;;;;;;5046398;28;37171;-76
2022/04/24 04:46:09;;;;;;;15.63;11.70;;;9.40;99.90;;;;;;5042779;28;39995;-77
2022/04/24 04:48:35;;;;;;;18.13;12.07;;;9.40;99.90;;;;;;5042784;28;40720;-76
2022/04/24 04:51:01;;;;;;;15.53;11.57;;;9.40;99.90;;;;;;5058082;28;38392;-77
2022/04/24 04:53:27;;;;;;;13.97;11.43;;;9.40;99.90;;;;;;5031034;28;36507;-76
2022/04/24 04:55:54;;;;;;;12.50;10.60;;;9.40;99.90;;;;;;5051160;28;40417;-76
2022/04/24 04:58:21;;;;;;;12.37;11.07;;;9.40;99.90;;;;;;5044105;28;39352;-76
2022/04/24 05:00:47;;;;;;;15.17;11.40;;;9.40;99.90;;;;;;5045643;28;37685;-76
2022/04/24 05:03:13;;;;;;;11.87;10.60;;;9.40;99.90;;;;;;5047263;28;37362;-75
2022/04/24 05:05:39;;;;;;;13.83;10.73;;;9.40;99.90;;;;;;5052381;28;39683;-76
2022/04/24 05:08:05;;;;;;;14.30;11.07;;;9.40;99.90;;;;;;5039980;28;38669;-76
2022/04/24 05:10:31;;;;;;;14.73;10.07;;;9.40;99.90;;;;;;5026538;28;37578;-76
2022/04/24 05:12:58;;;;;;;12.90;10.53;;;9.40;99.90;;;;;;5040048;28;38214;-77
2022/04/24 05:15:25;;;;;;;12.17;10.43;;;9.50;99.90;;;;;;5045750;28;38634;-75
2022/04/24 05:17:52;;;;;;;12.30;9.97;;;9.50;99.90;;;;;;5058232;28;38709;-76
2022/04/24 05:20:18;;;;;;;13.70;9.33;;;9.60;99.90;;;;;;5054328;28;38487;-77
2022/04/24 05:22:44;;;;;;;16.77;9.60;;;9.60;99.90;;;;;;5044892;28;38801;-76
2022/04/24 05:25:12;;;;;;;11.13;9.53;;;9.70;99.90;;;;;;5035151;28;40665;-76
2022/04/24 05:27:39;;;;;;;11.00;9.30;;;9.70;99.90;;;;;;5031088;28;37805;-77
2022/04/24 05:30:08;;;;;;;12.03;9.53;;;9.70;99.90;;;;;;5049055;28;39810;-76
2022/04/24 05:32:42;;;;;;;12.60;10.33;;;9.70;99.90;;;;;;5059190;28;38847;-76
2022/04/24 05:35:09;;;;;;;12.27;9.70;;;9.70;99.90;;;;;;5045459;28;40880;-76
2022/04/24 05:37:35;;;;;;;14.83;9.57;;;9.70;99.90;;;;;;5045798;28;40192;-76
2022/04/24 05:40:02;;;;;;;11.80;9.53;;;9.80;99.90;;;;;;5046459;28;38629;-77
2022/04/24 05:42:28;;;;;;;10.87;9.27;;;9.80;99.90;;;;;;5054109;28;47044;-76
2022/04/24 05:44:58;;;;;;;11.03;9.37;;;9.80;99.90;;;;;;5047273;28;37864;-76
2022/04/24 05:47:24;;;;;;;11.27;8.38;;;9.80;99.90;;;;;;5044800;28;39820;-76
2022/04/24 05:49:50;;;;;;;10.63;8.20;;;9.90;99.90;;;;;;5042671;28;38408;-77
2022/04/24 05:52:16;;;;;;;10.48;9.32;;;9.90;99.90;;;;;;5044137;28;36975;-76
2022/04/24 05:54:42;;;;;;;10.02;8.65;;;10.00;99.90;;;;;;5051945;28;39603;-76
2022/04/24 05:57:08;;;;;;;11.00;8.67;;;10.00;99.90;;;;;;5046047;28;39529;-76
2022/04/24 05:59:34;;;;;;;10.23;8.83;;;10.00;99.90;;;;;;5043164;28;40278;-77
2022/04/24 06:02:00;;;;;;;10.90;8.07;;;10.10;99.90;;;;;;5021710;28;36960;-75
2022/04/24 06:04:27;;;;;;;10.77;8.37;;;10.10;99.90;;;;;;5050474;28;46743;-76
2022/04/24 06:06:53;;;;;;;10.13;8.10;;;10.10;99.90;;;;;;5024264;28;38797;-75
2022/04/24 06:09:19;;;;;;;10.03;8.03;;;10.20;99.90;;;;;;5053349;28;38986;-76
2022/04/24 06:11:46;;;;;;;10.77;8.75;;;10.20;99.90;;;;;;5053663;28;36939;-76
2022/04/24 06:14:13;;;;;;;13.82;8.60;;;10.30;99.90;;;;;;5045136;28;39170;-76
2022/04/24 06:16:38;;;;;;;8.70;7.80;;;10.30;99.90;;;;;;5046731;28;40120;-75
2022/04/24 06:19:05;;;;;;;13.07;8.30;;;10.40;99.90;;;;;;5025310;28;39542;-76
2022/04/24 06:21:31;;;;;;;8.50;7.57;;;10.40;99.90;;;;;;5040881;28;38874;-76
2022/04/24 06:23:57;;;;;;;9.25;7.32;;;10.50;99.90;;;;;;5054869;28;40443;-76
2022/04/24 06:26:23;;;;;;;10.27;7.90;;;10.50;99.90;;;;;;5048260;28;40220;-77
2022/04/24 06:28:49;;;;;;;8.88;7.55;;;10.50;99.90;;;;;;5051296;28;39479;-76
2022/04/24 06:31:15;;;;;;;11.35;8.18;;;10.60;99.90;;;;;;5033717;28;38506;-75
2022/04/24 06:33:41;;;;;;;8.77;7.28;;;10.70;99.90;;;;;;5024908;28;39183;-75
2022/04/24 06:36:07;;;;;;;8.82;7.45;;;10.70;99.90;;;;;;5032411;28;39132;-77
2022/04/24 06:38:33;;;;;;;13.13;7.40;;;10.80;99.90;;;;;;5047385;28;40432;-78
2022/04/24 06:40:59;;;;;;;11.70;7.55;;;10.90;99.90;;;;;;5031233;28;38895;-76
2022/04/24 06:43:25;;;;;;;9.68;7.50;;;10.90;99.90;;;;;;5046417;28;40095;-76
2022/04/24 06:45:52;;;;;;;8.05;7.20;;;11.00;99.90;;;;;;5039926;28;40663;-76
2022/04/24 06:48:18;;;;;;;9.07;6.97;;;11.10;99.90;;;;;;5049709;28;38430;-76
2022/04/24 06:50:46;;;;;;;8.50;6.97;;;11.10;99.90;;;;;;5052720;28;37158;-75
2022/04/24 06:53:14;;;;;;;8.93;7.07;;;11.10;99.90;;;;;;5021969;28;39993;-75
2022/04/24 06:55:42;;;;;;;7.93;7.13;;;11.20;99.90;;;;;;5044291;28;37802;-77
2022/04/24 06:58:10;;;;;;;12.23;7.45;;;11.20;99.90;;;;;;5035448;28;38157;-76
2022/04/24 07:00:38;;;;;;;9.10;7.40;;;11.40;99.90;;;;;;5033249;28;37064;-78
2022/04/24 07:03:12;;;;;;;8.75;7.28;;;11.40;99.90;;;;;;5042020;28;40033;-76
2022/04/24 07:05:39;;;;;;;7.50;6.20;;;11.40;99.90;;;;;;5042828;28;40297;-76
2022/04/24 07:08:06;;;;;;;8.15;7.35;;;11.50;99.90;;;;;;5041414;28;37300;-77
2022/04/24 07:10:33;;;;;;;7.97;6.38;;;11.70;99.90;;;;;;5038051;28;35978;-77
2022/04/24 07:12:59;;;;;;;11.52;7.22;;;11.80;99.90;;;;;;5032446;28;38921;-80
2022/04/24 07:15:29;;;;;;;9.57;6.85;;;11.90;99.90;;;;;;5050510;28;39708;-76
2022/04/24 07:17:56;;;;;;;8.75;7.35;;;12.00;99.90;;;;;;5052150;28;37820;-76
2022/04/24 07:20:23;;;;;;;9.43;8.43;;;12.20;99.90;;;;;;5046400;28;37157;-77
2022/04/24 07:22:50;;;;;;;8.57;6.82;;;12.30;99.90;;;;;;5025218;28;39377;-76
2022/04/24 07:25:21;;;;;;;8.68;7.18;;;12.50;99.90;;;;;;5042865;28;37877;-76
2022/04/24 07:27:48;;;;;;;9.85;6.53;;;12.60;99.90;;;;;;5045178;28;39711;-79
2022/04/24 07:30:16;;;;;;;7.63;6.57;;;12.70;99.90;;;;;;5046685;28;38036;-77
2022/04/24 07:32:43;;;;;;;10.77;6.70;;;12.80;99.90;;;;;;5028685;28;37808;-76
2022/04/24 07:35:14;;;;;;;8.40;6.25;;;13.10;99.90;;;;;;5045076;28;39757;-77
2022/04/24 07:37:41;;;;;;;7.82;6.97;;;13.20;99.90;;;;;;5025302;28;37449;-77
2022/04/24 07:40:10;;;;;;;10.02;6.57;;;13.30;99.90;;;;;;5042230;28;37815;-77
2022/04/24 07:42:47;;;;;;;8.20;6.30;;;13.40;99.90;;;;;;5049837;28;39323;-79
2022/04/24 07:45:20;;;;;;;13.27;6.57;;;13.40;99.90;;;;;;5034440;28;37875;-77
2022/04/24 07:47:47;;;;;;;9.93;6.65;;;13.40;99.90;;;;;;5033460;28;37730;-77
2022/04/24 07:50:14;;;;;;;8.40;6.68;;;13.60;99.90;;;;;;5038751;28;38232;-77
2022/04/24 07:52:41;;;;;;;8.40;6.70;;;13.60;99.90;;;;;;5036681;28;39475;-77
2022/04/24 07:55:11;;;;;;;7.90;6.60;;;13.90;99.90;;;;;;5039937;28;38914;-76
2022/04/24 07:57:39;;;;;;;7.43;6.63;;;14.20;99.90;;;;;;5042504;28;40031;-77
2022/04/24 08:00:09;;;;;;;8.25;6.68;;;14.20;99.90;;;;;;5047139;28;38552;-80
2022/04/24 08:02:57;;;;;;;8.88;6.38;;;14.40;99.90;;;;;;5041524;28;38547;-77
2022/04/24 08:05:30;;;;;;;7.28;6.43;;;14.40;99.90;;;;;;5049237;28;39799;-78
2022/04/24 08:07:58;;;;;;;6.63;6.03;;;14.50;99.90;;;;;;5039333;28;37587;-77
2022/04/24 08:10:26;;;;;;;7.85;6.70;;;14.50;99.90;;;;;;5054065;28;36849;-77
2022/04/24 08:12:52;;;;;;;16.42;7.00;;;14.60;99.90;;;;;;5056928;28;37950;-76
2022/04/24 08:15:19;;;;;;;9.80;6.53;;;14.40;99.90;;;;;;5022996;28;37957;-76
2022/04/24 08:17:45;;;;;;;10.23;6.68;;;14.60;99.90;;;;;;5028937;28;37279;-80
2022/04/24 08:20:14;;;;;;;7.45;6.20;;;14.60;99.90;;;;;;5033825;28;36058;-79
2022/04/24 08:22:48;;;;;;;7.30;5.53;;;14.80;99.90;;;;;;5033037;28;37649;-78
2022/04/24 08:25:23;;;;;;;6.85;6.13;;;14.90;99.90;;;;;;5049957;28;38966;-78
2022/04/24 08:27:51;;;;;;;8.05;6.25;;;14.90;99.90;;;;;;5055989;28;38145;-77
2022/04/24 08:30:19;;;;;;;6.97;6.28;;;15.10;99.90;;;;;;5039097;28;37490;-79
2022/04/24 08:32:45;;;;;;;8.75;6.28;;;15.40;99.90;;;;;;5037663;28;38555;-77
2022/04/24 08:35:15;;;;;;;7.93;6.55;;;15.30;99.90;;;;;;5053613;28;38833;-77
2022/04/24 08:37:42;;;;;;;7.00;6.07;;;15.20;99.90;;;;;;5038259;28;38756;-78
2022/04/24 08:40:11;;;;;;;7.43;6.20;;;15.40;99.90;;;;;;5017787;28;37545;-77
2022/04/24 08:42:38;;;;;;;7.45;6.38;;;15.80;99.90;;;;;;5047325;28;39737;-77
2022/04/24 08:45:07;;;;;;;7.70;6.40;;;16.10;99.90;;;;;;5045705;28;40357;-77
2022/04/24 08:47:33;;;;;;;7.75;6.28;;;16.10;99.90;;;;;;5047724;28;41189;-77
2022/04/24 08:50:00;;;;;;;6.88;6.18;;;16.10;99.90;;;;;;5050579;28;36973;-77
2022/04/24 08:52:28;;;;;;;7.82;6.00;;;16.10;99.90;;;;;;5039094;28;37770;-76
2022/04/24 08:54:56;;;;;;;9.57;6.40;;;16.40;99.90;;;;;;5050085;28;39486;-75
2022/04/24 08:57:26;;;;;;;7.32;6.63;;;16.30;99.90;;;;;;5052468;28;38247;-76
2022/04/24 08:59:56;;;;;;;6.80;6.05;;;16.10;99.90;;;;;;5055088;28;37608;-77
2022/04/24 09:02:23;;;;;;;8.25;6.30;;;16.00;99.90;;;;;;5046727;28;38776;-76
2022/04/24 09:04:49;;;;;;;9.88;6.68;;;16.20;99.90;;;;;;5039170;28;38557;-76
2022/04/24 09:07:17;;;;;;;7.40;6.10;;;16.30;99.90;;;;;;5037322;28;39228;-76
2022/04/24 09:09:48;;;;;;;6.60;6.00;;;16.10;99.90;;;;;;5060171;28;37711;-77
2022/04/24 09:12:26;;;;;;;8.40;5.88;;;16.30;99.90;;;;;;5033275;28;39502;-76
2022/04/24 09:14:54;;;;;;;6.18;5.57;;;16.50;99.90;;;;;;5053815;28;39359;-76
2022/04/24 09:17:28;;;;;;;7.50;5.93;;;16.50;99.90;;;;;;5055168;28;39479;-77
2022/04/24 09:19:58;;;;;;;8.75;5.45;;;16.50;99.90;;;;;;5050851;28;37714;-76
2022/04/24 09:22:25;;;;;;;7.95;6.20;;;16.40;99.90;;;;;;5047903;28;39417;-77
2022/04/24 09:24:59;;;;;;;9.25;6.03;;;16.40;99.90;;;;;;5041828;28;39504;-77
2022/04/24 09:27:32;;;;;;;7.07;5.65;;;16.50;99.90;;;;;;5034753;28;39128;-77
2022/04/24 09:30:03;;;;;;;6.57;5.82;;;16.90;99.90;;;;;;5050135;28;37798;-77
2022/04/24 09:32:31;;;;;;;7.65;6.60;;;17.00;99.90;;;;;;5042590;28;46877;-76
2022/04/24 09:34:59;;;;;;;8.30;6.20;;;17.10;99.90;;;;;;5045940;28;37278;-78
2022/04/24 09:37:26;;;;;;;8.05;6.25;;;16.90;99.90;;;;;;5047697;28;40115;-77
2022/04/24 09:39:55;;;;;;;6.72;6.03;;;16.90;99.90;;;;;;5035059;28;38090;-77
2022/04/24 09:42:21;;;;;;;8.10;6.30;;;17.00;99.90;;;;;;5048653;28;39114;-77
2022/04/24 09:44:50;;;;;;;7.07;5.97;;;16.90;99.90;;;;;;5050568;28;40107;-76
2022/04/24 09:47:22;;;;;;;7.45;6.40;;;17.20;99.90;;;;;;5042723;28;38363;-78
2022/04/24 09:49:50;;;;;;;7.03;6.32;;;17.40;99.90;;;;;;5059767;28;37020;-78
2022/04/24 09:52:22;;;;;;;8.88;6.43;;;17.20;99.90;;;;;;5038772;28;39096;-78
2022/04/24 09:54:50;;;;;;;10.38;7.10;;;17.20;99.90;;;;;;5064676;28;38716;-77
2022/04/24 09:57:17;;;;;;;10.40;6.75;;;17.10;99.90;;;;;;5051835;28;37657;-78
2022/04/24 09:59:45;;;;;;;7.85;6.63;;;17.20;99.90;;;;;;5031395;28;37722;-76
2022/04/24 10:02:14;;;;;;;7.75;5.57;;;17.70;99.90;;;;;;5041252;28;39224;-79
2022/04/24 10:04:41;;;;;;;5.97;5.38;;;18.10;99.90;;;;;;5032248;28;39585;-78
2022/04/24 10:07:09;;;;;;;6.38;5.70;;;18.10;99.90;;;;;;5051553;28;37315;-79
2022/04/24 10:09:40;;;;;;;7.50;5.70;;;18.20;99.90;;;;;;5036449;28;37477;-78
2022/04/24 10:12:09;;;;;;;6.13;5.43;;;18.20;99.90;;;;;;5049173;28;39039;-79
2022/04/24 10:15:06;;;;;;;7.75;6.32;;;18.20;99.90;;;;;;5054488;28;38994;-80
2022/04/24 10:18:31;;;;;;;6.32;5.22;;;17.70;99.90;;;;;;5036225;28;47841;-80
2022/04/24 10:21:25;;;;;;;5.88;4.95;;;17.70;99.90;;;;;;4945841;28;48285;-77
2022/04/24 10:23:51;;;;;;;8.48;5.82;;;18.00;99.90;;;;;;4917524;28;47379;-80
2022/04/24 10:26:19;;;;;;;7.18;5.00;;;18.30;99.90;;;;;;4997297;28;38050;-80
2022/04/24 10:28:48;;;;;;;7.40;5.70;;;18.40;99.90;;;;;;5044042;28;37675;-79
2022/04/24 10:31:16;;;;;;;7.60;5.43;;;18.40;99.90;;;;;;5048429;28;36464;-79
2022/04/24 10:33:51;;;;;;;7.43;5.72;;;18.60;99.90;;;;;;5039788;28;38699;-79
2022/04/24 10:36:18;;;;;;;5.30;4.80;;;18.60;99.90;;;;;;5054010;28;39022;-78
2022/04/24 10:38:57;;;;;;;6.25;5.55;;;18.90;99.90;;;;;;5031925;28;38361;-79
2022/04/24 10:41:29;;;;;;;6.18;5.45;;;18.60;99.90;;;;;;5028305;28;36801;-80
2022/04/24 10:44:08;;;;;;;5.35;4.85;;;18.80;99.90;;;;;;5025957;28;38918;-79
2022/04/24 10:46:39;;;;;;;6.63;5.35;;;18.70;99.90;;;;;;5045130;28;47166;-79
2022/04/24 10:49:10;;;;;;;6.30;5.30;;;18.80;99.90;;;;;;5044882;28;39735;-79
2022/04/24 10:51:39;;;;;;;5.83;5.20;;;18.70;99.90;;;;;;5051309;28;36114;-79
2022/04/24 10:54:13;;;;;;;7.70;5.35;;;18.90;99.90;;;;;;5035342;28;40396;-79
2022/04/24 10:56:49;;;;;;;6.93;5.57;;;18.80;99.90;;;;;;5030317;28;38666;-79
2022/04/24 10:59:18;;;;;;;8.23;5.68;;;18.90;99.90;;;;;;5051446;28;39272;-80
2022/04/24 11:01:48;;;;;;;5.97;5.38;;;18.60;99.90;;;;;;5046880;28;37538;-80
2022/04/24 11:04:16;;;;;;;6.45;5.25;;;18.80;99.90;;;;;;5045033;28;38960;-79
2022/04/24 11:06:57;;;;;;;7.63;5.60;;;19.10;99.90;;;;;;5028619;28;40156;-79
2022/04/24 11:09:30;;;;;;;5.60;4.88;;;19.40;99.90;;;;;;5052338;28;38181;-78
2022/04/24 11:12:04;;;;;;;6.70;5.57;;;19.50;99.90;;;;;;5064660;28;37678;-79
2022/04/24 11:14:30;;;;;;;11.55;6.05;;;19.40;99.90;;;;;;5065810;28;47303;-78
2022/04/24 11:16:58;;;;;;;7.25;5.70;;;19.20;99.90;;;;;;5043914;28;38231;-77
2022/04/24 11:19:30;;;;;;;5.78;4.38;;;19.00;99.90;;;;;;5049853;28;37323;-79
2022/04/24 11:22:00;;;;;;;7.63;5.60;;;19.20;99.90;;;;;;5041017;28;39059;-78
2022/04/24 11:24:28;;;;;;;7.07;5.40;;;19.60;99.90;;;;;;5039397;28;38531;-79
2022/04/24 11:26:55;;;;;;;8.27;5.97;;;19.60;99.90;;;;;;5046439;28;38258;-78
2022/04/24 11:29:21;;;;;;;5.35;4.85;;;19.40;99.90;;;;;;5038357;28;42285;-80
2022/04/24 11:31:55;;;;;;;10.63;5.50;;;19.70;99.90;;;;;;5044542;28;38744;-80
2022/04/24 11:34:25;;;;;;;8.30;4.72;;;19.70;99.90;;;;;;5045171;28;39761;-78
2022/04/24 11:36:56;;;;;;;9.88;5.65;;;19.80;99.90;;;;;;5034869;28;39500;-76
2022/04/24 11:39:22;;;;;;;8.35;5.50;;;20.10;99.90;;;;;;5044406;28;38204;-76
2022/04/24 11:41:51;;;;;;;6.53;5.85;;;20.10;99.90;;;;;;5050088;28;37043;-78
2022/04/24 11:52:49;;;;;;;6.43;5.38;;;19.90;99.90;;;;;;5043596;28;49220;-79
2022/04/24 11:55:19;;;;;;;7.03;5.28;;;19.90;99.90;;;;;;5051206;28;39266;-78
2022/04/24 11:57:59;;;;;;;7.03;5.45;;;19.60;99.90;;;;;;5041477;28;38813;-79
2022/04/24 12:00:36;;;;;;;7.07;5.63;;;19.80;99.90;;;;;;5025805;28;39282;-79
2022/04/24 12:03:06;;;;;;;6.45;5.53;;;19.50;99.90;;;;;;5017778;28;37994;-80
2022/04/24 12:05:32;;;;;;;9.02;5.38;;;19.90;99.90;;;;;;5054994;28;39896;-77
2022/04/24 12:08:00;;;;;;;7.63;5.25;;;19.90;99.90;;;;;;5043676;28;40123;-79
2022/04/24 12:10:27;;;;;;;6.60;5.15;;;19.70;99.90;;;;;;5044826;28;41160;-80
2022/04/24 12:12:54;;;;;;;7.65;5.38;;;20.20;99.90;;;;;;5052211;28;38367;-78
2022/04/24 12:15:25;;;;;;;7.18;5.47;;;20.10;99.90;;;;;;5043252;28;40781;-78
2022/04/24 12:17:53;;;;;;;5.82;5.25;;;20.40;99.90;;;;;;5039366;28;39864;-78
2022/04/24 12:20:20;;;;;;;6.32;5.00;;;20.60;99.90;;;;;;5031702;28;40373;-78
2022/04/24 12:22:47;;;;;;;8.88;5.05;;;20.20;99.90;;;;;;5029633;28;37623;-78
2022/04/24 12:25:17;;;;;;;6.15;4.80;;;20.30;99.90;;;;;;5048753;28;39859;-79
2022/04/24 12:27:57;;;;;;;5.55;4.70;;;20.40;99.90;;;;;;5041798;28;40394;-79
2022/04/24 12:30:31;;;;;;;6.18;5.28;;;20.40;99.90;;;;;;5045628;28;38399;-77
2022/04/24 12:33:10;;;;;;;6.03;5.10;;;20.20;99.90;;;;;;5038798;28;37665;-79
2022/04/24 12:35:36;;;;;;;7.80;5.50;;;20.00;99.90;;;;;;5042006;28;48764;-79
2022/04/24 12:38:16;;;;;;;6.32;4.70;;;20.40;99.90;;;;;;5038327;28;35861;-79
2022/04/24 12:40:57;;;;;;;8.30;4.53;;;20.40;99.90;;;;;;5017656;28;41653;-79
2022/04/24 12:43:25;;;;;;;6.07;5.22;;;20.30;99.90;;;;;;5040148;28;36861;-78
2022/04/24 12:45:58;;;;;;;6.32;5.65;;;20.10;99.90;;;;;;5042766;28;38788;-80
2022/04/24 12:48:25;;;;;;;9.07;6.03;;;20.00;99.90;;;;;;5046530;28;39527;-80
2022/04/24 12:50:52;;;;;;;8.60;5.80;;;20.20;99.90;;;;;;5040087;28;39053;-78
2022/04/24 12:53:19;;;;;;;9.82;5.25;;;19.70;99.90;;;;;;5046741;28;36285;-77
2022/04/24 12:55:46;;;;;;;6.38;4.88;;;20.20;99.90;;;;;;5046662;28;38407;-78